WetterOnline ( https://www.wetteronline.de )

Wetter aktuell Butzbach

Aktuelles Wetter: Gießen (195m)

6-stündlich | Neueste Meldungen
Ortszeit Temperatur Wetter
Do, 02.02. 13:00 7.3° C leichter Regen
Do, 02.02. 7:00 3.9° C leichter Regen
Do, 02.02. 1:00 3.4° C Sprühregen
Mi, 01.02. 19:00 5.2° C leichter Regen
Mi, 01.02. 13:00 5.8° C bedeckt
Mi, 01.02. 7:00 4.2° C leicht bewölkt
Mi, 01.02. 1:00 4.1° C bedeckt
Di, 31.01. 19:00 4.1° C Sprühregen
Ortszeit Temperatur Wetter
Do, 02.02. 13:00 7.3° C leichter Regen
Do, 02.02. 12:40 7.3° C leichter Regen
Do, 02.02. 12:30 7.3° C leichter Regen
Do, 02.02. 12:20 7.3° C leichter Regen
Do, 02.02. 12:10 7.3° C leichter Regen
Do, 02.02. 12:00 7.2° C leichter Regen
Do, 02.02. 11:50 7.2° C leichter Regen
Do, 02.02. 11:30 7.1° C leichter Regen
Do, 02.02. 11:00 6.9° C leichter Regen
Do, 02.02. 10:30 6.7° C leichter Regen
Do, 02.02. 10:00 6.6° C leichter Regen
Ortszeit Relative Feuchte Sichtweite
Do, 02.02. 13:00 86% 16 km
Do, 02.02. 7:00 98% 12 km
Do, 02.02. 1:00 95% 35 km
Mi, 01.02. 19:00 87% 14 km
Mi, 01.02. 13:00 75% 26 km
Mi, 01.02. 7:00 84% 30 km
Mi, 01.02. 1:00 93% 30 km
Di, 31.01. 19:00 95% 21 km
Ortszeit Relative Feuchte Sichtweite
Do, 02.02. 13:00 86% 16 km
Do, 02.02. 12:40 85% -
Do, 02.02. 12:30 85% 35 km
Do, 02.02. 12:20 85% -
Do, 02.02. 12:10 85% -
Do, 02.02. 12:00 86% 35 km
Do, 02.02. 11:50 86% -
Do, 02.02. 11:30 86% 23 km
Do, 02.02. 11:00 88% 19 km
Do, 02.02. 10:30 89% 23 km
Do, 02.02. 10:00 89% 19 km
Ortszeit Niederschlagsmenge Niederschlagsart
Do, 02.02. 13:00 1 l/m2 in 6 Std. Regen
Do, 02.02. 7:00 7 l/m2 in 12 Std. Regen
Do, 02.02. 1:00 2 l/m2 in 6 Std. Regen
Mi, 01.02. 19:00 0.2 l/m2 in 12 Std. Regen
Mi, 01.02. 13:00 0.1 l/m2 in 6 Std. Regen
Mi, 01.02. 7:00 0.3 l/m2 in 12 Std. Regen
Mi, 01.02. 1:00 0.3 l/m2 in 6 Std. Regen
Di, 31.01. 19:00 0.1 l/m2 in 12 Std. Regen
Ortszeit Niederschlagsmenge Niederschlagsart
Do, 02.02. 13:00 <0.05 l/m2 in 1 Std. Regen
Do, 02.02. 12:40 keine Meldung -
Do, 02.02. 12:30 <0.05 l/m2 in 30 Min -
Do, 02.02. 12:20 keine Meldung -
Do, 02.02. 12:10 keine Meldung -
Do, 02.02. 12:00 0.2 l/m2 in 1 Std. Regen
Do, 02.02. 11:50 keine Meldung -
Do, 02.02. 11:30 <0.05 l/m2 in 30 Min -
Do, 02.02. 11:00 0.2 l/m2 in 1 Std. Regen
Do, 02.02. 10:30 0.1 l/m2 in 30 Min -
Do, 02.02. 10:00 0.2 l/m2 in 1 Std. Regen
Ortszeit Stärke Spitze Richtung
km/h Bft. km/h Grad Sektor
Do, 02.02. 13:00 22 4 41 250° W
Do, 02.02. 7:00 6 1 26 170° S
Do, 02.02. 1:00 9 2 59 10° N
Mi, 01.02. 19:00 31 5 65 230° SW
Mi, 01.02. 13:00 29 5 54 240° SW
Mi, 01.02. 7:00 22 4 32 230° SW
Mi, 01.02. 1:00 20 4 41 210° SW
Di, 31.01. 19:00 26 4 46 220° SW
Ortszeit Stärke Spitze Richtung
km/h Bft. km/h Grad Sektor
Do, 02.02. 13:00 22 4 41 250° W
Do, 02.02. 12:40 24 4 - 250° W
Do, 02.02. 12:30 24 4 41 240° SW
Do, 02.02. 12:20 24 4 - 240° SW
Do, 02.02. 12:10 25 4 - 250° W
Do, 02.02. 12:00 25 4 40 250° W
Do, 02.02. 11:50 25 4 - 250° W
Do, 02.02. 11:30 28 4 39 250° W
Do, 02.02. 11:00 25 4 36 250° W
Do, 02.02. 10:30 24 4 37 240° SW
Do, 02.02. 10:00 25 4 36 240° SW
Ortszeit Untergrenze Bedeckung Gattung
total tief tief mittel hoch
Do, 02.02. 13:00 630 m 7/8 7/8 - - -
Do, 02.02. 7:00 540 m 7/8 7/8 - - -
Do, 02.02. 1:00 690 m 7/8 7/8 - - -
Mi, 01.02. 19:00 630 m 7/8 2/8 - - -
Mi, 01.02. 13:00 900 m 8/8 8/8 - - -
Mi, 01.02. 7:00 930 m 4/8 4/8 - - -
Mi, 01.02. 1:00 1230 m 8/8 8/8 - - -
Di, 31.01. 19:00 210 m 7/8 7/8 - - -
Ortszeit Bedeckungsgrad in Achtel und Wolkenuntergrenze
Do, 02.02. 13:00 7(630m)
Do, 02.02. 12:40 7
Do, 02.02. 12:30 7(630m) 8(780m)
Do, 02.02. 12:20 7(630m) 8(780m)
Do, 02.02. 12:10 8
Do, 02.02. 12:00 7(630m) 8(810m)
Do, 02.02. 11:50 7(630m) 8(810m)
Do, 02.02. 11:30 7(660m) 8(870m)
Do, 02.02. 11:00 6(630m) 7(840m)
Do, 02.02. 10:30 7(570m)
Do, 02.02. 10:00 7(600m)
Ortszeit Luftdruck NN (hPa) Tendenz (hPa in 3 Std.)
Do, 02.02. 13:00 1023 + 1,2
Do, 02.02. 7:00 1021 + 0,1
Do, 02.02. 1:00 1021 + 1,0
Mi, 01.02. 19:00 1019 + 0,6
Mi, 01.02. 13:00 1020 - 0,6
Mi, 01.02. 7:00 1020 - 0,5
Mi, 01.02. 1:00 1021 - 0,8
Di, 31.01. 19:00 1022 + 0,1
Ortszeit Luftdruck NN (hPa) Tendenz (hPa in 3 Std.)
Do, 02.02. 13:00 1023 + 1,2
Do, 02.02. 12:40 1023 keine Meldung
Do, 02.02. 12:30 1023 + 1,4
Do, 02.02. 12:20 1023 keine Meldung
Do, 02.02. 12:10 1023 keine Meldung
Do, 02.02. 12:00 1023 + 1,6
Do, 02.02. 11:50 1023 keine Meldung
Do, 02.02. 11:30 1023 + 1,7
Do, 02.02. 11:00 1022 + 1,3
Do, 02.02. 10:30 1022 + 1,1
Do, 02.02. 10:00 1022 + 0,8
Ortszeit Schneehöhe (cm)
Do, 02.02. 13:00 0
Do, 02.02. 7:00 0
Do, 02.02. 1:00 0
Mi, 01.02. 19:00 0
Mi, 01.02. 13:00 0
Mi, 01.02. 7:00 0
Mi, 01.02. 1:00 0
Di, 31.01. 19:00 0
Ortszeit Schneehöhe (cm)
Do, 02.02. 13:00 0
Do, 02.02. 12:40 0
Do, 02.02. 12:30 0
Do, 02.02. 12:20 0
Do, 02.02. 12:10 0
Do, 02.02. 12:00 0
Do, 02.02. 11:50 0
Do, 02.02. 11:30 0
Do, 02.02. 11:00 0
Do, 02.02. 10:30 0
Do, 02.02. 10:00 0
Link zu dieser Seite / Seite empfehlen

Das Wetter in ...